sensor_id;sensor_type;location;lat;lon;timestamp;P1;durP1;ratioP1;P2;durP2;ratioP2
73670;SDS011;61968;48.178;11.566;2022-11-15T00:02:18;7.57;;;2.78;;
73670;SDS011;61968;48.178;11.566;2022-11-15T00:07:11;4.68;;;2.75;;
73670;SDS011;61968;48.178;11.566;2022-11-15T00:12:04;3.17;;;2.38;;
73670;SDS011;61968;48.178;11.566;2022-11-15T00:14:31;4.35;;;2.30;;
73670;SDS011;61968;48.178;11.566;2022-11-15T00:19:25;5.75;;;2.20;;
73670;SDS011;61968;48.178;11.566;2022-11-15T00:24:18;5.10;;;2.85;;
73670;SDS011;61968;48.178;11.566;2022-11-15T00:29:11;4.03;;;2.60;;
73670;SDS011;61968;48.178;11.566;2022-11-15T00:34:05;11.45;;;2.80;;
73670;SDS011;61968;48.178;11.566;2022-11-15T00:36:32;5.30;;;3.03;;
73670;SDS011;61968;48.178;11.566;2022-11-15T00:38:59;4.05;;;2.90;;
73670;SDS011;61968;48.178;11.566;2022-11-15T00:41:26;6.97;;;2.65;;
73670;SDS011;61968;48.178;11.566;2022-11-15T00:46:19;4.72;;;2.40;;
73670;SDS011;61968;48.178;11.566;2022-11-15T00:51:13;5.35;;;2.53;;
73670;SDS011;61968;48.178;11.566;2022-11-15T00:53:40;3.55;;;2.03;;
73670;SDS011;61968;48.178;11.566;2022-11-15T00:56:07;3.83;;;2.47;;
73670;SDS011;61968;48.178;11.566;2022-11-15T00:58:33;3.13;;;2.20;;
73670;SDS011;61968;48.178;11.566;2022-11-15T01:01:05;5.30;;;2.38;;
73670;SDS011;61968;48.178;11.566;2022-11-15T01:03:33;3.13;;;1.88;;
73670;SDS011;61968;48.178;11.566;2022-11-15T01:05:59;3.97;;;2.30;;
73670;SDS011;61968;48.178;11.566;2022-11-15T01:08:28;3.83;;;2.35;;
73670;SDS011;61968;48.178;11.566;2022-11-15T01:10:54;2.97;;;2.08;;
73670;SDS011;61968;48.178;11.566;2022-11-15T01:13:28;5.88;;;2.63;;
73670;SDS011;61968;48.178;11.566;2022-11-15T01:15:56;3.83;;;2.22;;
73670;SDS011;61968;48.178;11.566;2022-11-15T01:20:49;5.30;;;2.50;;
73670;SDS011;61968;48.178;11.566;2022-11-15T01:25:44;2.92;;;1.98;;
73670;SDS011;61968;48.178;11.566;2022-11-15T01:28:10;2.38;;;1.73;;
73670;SDS011;61968;48.178;11.566;2022-11-15T01:33:03;2.30;;;1.90;;
73670;SDS011;61968;48.178;11.566;2022-11-15T01:35:30;2.60;;;1.73;;
73670;SDS011;61968;48.178;11.566;2022-11-15T01:40:23;2.65;;;1.67;;
73670;SDS011;61968;48.178;11.566;2022-11-15T01:42:51;2.58;;;1.92;;
73670;SDS011;61968;48.178;11.566;2022-11-15T01:45:18;3.50;;;1.48;;
73670;SDS011;61968;48.178;11.566;2022-11-15T01:50:14;2.65;;;2.22;;
73670;SDS011;61968;48.178;11.566;2022-11-15T01:52:44;6.50;;;2.13;;
73670;SDS011;61968;48.178;11.566;2022-11-15T01:55:11;3.28;;;1.92;;
73670;SDS011;61968;48.178;11.566;2022-11-15T01:57:40;4.20;;;2.00;;
73670;SDS011;61968;48.178;11.566;2022-11-15T02:00:12;2.50;;;1.90;;
73670;SDS011;61968;48.178;11.566;2022-11-15T02:02:39;2.60;;;1.70;;
73670;SDS011;61968;48.178;11.566;2022-11-15T02:05:06;3.60;;;2.30;;
73670;SDS011;61968;48.178;11.566;2022-11-15T02:07:34;2.13;;;1.50;;
73670;SDS011;61968;48.178;11.566;2022-11-15T02:10:02;2.35;;;1.83;;
73670;SDS011;61968;48.178;11.566;2022-11-15T02:12:33;2.45;;;1.90;;
73670;SDS011;61968;48.178;11.566;2022-11-15T02:15:00;3.47;;;1.83;;
73670;SDS011;61968;48.178;11.566;2022-11-15T02:17:35;3.50;;;1.58;;
73670;SDS011;61968;48.178;11.566;2022-11-15T02:26:24;3.70;;;1.45;;
73670;SDS011;61968;48.178;11.566;2022-11-15T02:29:12;4.07;;;1.48;;
73670;SDS011;61968;48.178;11.566;2022-11-15T02:31:44;3.58;;;1.90;;
73670;SDS011;61968;48.178;11.566;2022-11-15T02:34:21;1.58;;;1.48;;
73670;SDS011;61968;48.178;11.566;2022-11-15T02:36:56;2.58;;;1.98;;
73670;SDS011;61968;48.178;11.566;2022-11-15T02:39:31;2.33;;;1.67;;
73670;SDS011;61968;48.178;11.566;2022-11-15T02:42:04;3.65;;;1.73;;
73670;SDS011;61968;48.178;11.566;2022-11-15T02:44:55;4.18;;;2.05;;
73670;SDS011;61968;48.178;11.566;2022-11-15T02:47:24;2.88;;;2.00;;
73670;SDS011;61968;48.178;11.566;2022-11-15T02:49:57;4.22;;;2.70;;
73670;SDS011;61968;48.178;11.566;2022-11-15T02:52:26;5.25;;;1.65;;
73670;SDS011;61968;48.178;11.566;2022-11-15T02:54:53;4.40;;;1.80;;
73670;SDS011;61968;48.178;11.566;2022-11-15T02:57:23;2.33;;;1.48;;
73670;SDS011;61968;48.178;11.566;2022-11-15T03:00:03;3.08;;;2.00;;
73670;SDS011;61968;48.178;11.566;2022-11-15T03:05:30;4.35;;;2.00;;
73670;SDS011;61968;48.178;11.566;2022-11-15T03:08:05;2.75;;;1.83;;
73670;SDS011;61968;48.178;11.566;2022-11-15T03:10:37;3.47;;;1.90;;
73670;SDS011;61968;48.178;11.566;2022-11-15T03:13:16;3.33;;;2.22;;
73670;SDS011;61968;48.178;11.566;2022-11-15T03:15:51;2.92;;;1.98;;
73670;SDS011;61968;48.178;11.566;2022-11-15T03:20:56;2.03;;;1.30;;
73670;SDS011;61968;48.178;11.566;2022-11-15T03:23:26;3.30;;;1.42;;
73670;SDS011;61968;48.178;11.566;2022-11-15T03:25:56;3.17;;;1.70;;
73670;SDS011;61968;48.178;11.566;2022-11-15T03:28:25;2.70;;;1.50;;
73670;SDS011;61968;48.178;11.566;2022-11-15T03:30:56;2.30;;;1.88;;
73670;SDS011;61968;48.178;11.566;2022-11-15T03:33:48;3.55;;;1.60;;
73670;SDS011;61968;48.178;11.566;2022-11-15T03:36:18;1.92;;;1.50;;
73670;SDS011;61968;48.178;11.566;2022-11-15T03:38:47;1.75;;;1.63;;
73670;SDS011;61968;48.178;11.566;2022-11-15T03:41:15;10.50;;;1.98;;
73670;SDS011;61968;48.178;11.566;2022-11-15T03:43:50;2.47;;;1.52;;
73670;SDS011;61968;48.178;11.566;2022-11-15T03:46:23;2.38;;;1.42;;
73670;SDS011;61968;48.178;11.566;2022-11-15T03:48:56;1.40;;;1.27;;
73670;SDS011;61968;48.178;11.566;2022-11-15T03:51:29;1.52;;;1.42;;
73670;SDS011;61968;48.178;11.566;2022-11-15T03:53:56;3.70;;;1.70;;
73670;SDS011;61968;48.178;11.566;2022-11-15T03:56:22;1.65;;;1.33;;
73670;SDS011;61968;48.178;11.566;2022-11-15T04:01:15;1.48;;;1.30;;
73670;SDS011;61968;48.178;11.566;2022-11-15T04:03:42;1.67;;;1.27;;
73670;SDS011;61968;48.178;11.566;2022-11-15T04:06:09;1.45;;;1.25;;
73670;SDS011;61968;48.178;11.566;2022-11-15T04:08:36;2.33;;;1.75;;
73670;SDS011;61968;48.178;11.566;2022-11-15T04:13:29;1.52;;;1.25;;
73670;SDS011;61968;48.178;11.566;2022-11-15T04:18:22;1.88;;;1.42;;
73670;SDS011;61968;48.178;11.566;2022-11-15T04:20:49;1.75;;;1.55;;
73670;SDS011;61968;48.178;11.566;2022-11-15T04:23:35;1.70;;;1.27;;
73670;SDS011;61968;48.178;11.566;2022-11-15T04:26:20;2.40;;;1.35;;
73670;SDS011;61968;48.178;11.566;2022-11-15T04:28:48;2.17;;;1.70;;
73670;SDS011;61968;48.178;11.566;2022-11-15T04:31:32;2.00;;;1.42;;
73670;SDS011;61968;48.178;11.566;2022-11-15T04:33:59;1.90;;;1.60;;
73670;SDS011;61968;48.178;11.566;2022-11-15T04:36:25;1.88;;;1.40;;
73670;SDS011;61968;48.178;11.566;2022-11-15T04:39:11;1.63;;;1.30;;
73670;SDS011;61968;48.178;11.566;2022-11-15T04:41:37;2.53;;;1.27;;
73670;SDS011;61968;48.178;11.566;2022-11-15T04:44:04;1.75;;;1.40;;
73670;SDS011;61968;48.178;11.566;2022-11-15T04:48:57;2.30;;;1.50;;
73670;SDS011;61968;48.178;11.566;2022-11-15T04:53:50;4.05;;;1.88;;
73670;SDS011;61968;48.178;11.566;2022-11-15T04:56:18;2.63;;;1.65;;
73670;SDS011;61968;48.178;11.566;2022-11-15T04:58:44;1.67;;;1.25;;
73670;SDS011;61968;48.178;11.566;2022-11-15T05:03:39;4.90;;;2.42;;
73670;SDS011;61968;48.178;11.566;2022-11-15T05:06:23;6.35;;;1.67;;
73670;SDS011;61968;48.178;11.566;2022-11-15T05:11:17;1.90;;;1.70;;
73670;SDS011;61968;48.178;11.566;2022-11-15T05:13:45;2.42;;;1.27;;
73670;SDS011;61968;48.178;11.566;2022-11-15T05:18:38;1.95;;;1.40;;
73670;SDS011;61968;48.178;11.566;2022-11-15T05:21:06;3.03;;;1.77;;
73670;SDS011;61968;48.178;11.566;2022-11-15T05:23:34;2.00;;;1.50;;
73670;SDS011;61968;48.178;11.566;2022-11-15T05:26:00;1.73;;;1.55;;
73670;SDS011;61968;48.178;11.566;2022-11-15T05:28:29;3.78;;;2.10;;
73670;SDS011;61968;48.178;11.566;2022-11-15T05:31:00;2.38;;;1.98;;
73670;SDS011;61968;48.178;11.566;2022-11-15T05:33:27;2.58;;;1.83;;
73670;SDS011;61968;48.178;11.566;2022-11-15T05:35:54;2.13;;;1.60;;
73670;SDS011;61968;48.178;11.566;2022-11-15T05:38:25;2.92;;;1.65;;
73670;SDS011;61968;48.178;11.566;2022-11-15T05:40:52;5.13;;;1.40;;
73670;SDS011;61968;48.178;11.566;2022-11-15T05:45:46;1.88;;;1.10;;
73670;SDS011;61968;48.178;11.566;2022-11-15T05:48:13;1.10;;;1.00;;
73670;SDS011;61968;48.178;11.566;2022-11-15T05:50:41;1.85;;;1.45;;
73670;SDS011;61968;48.178;11.566;2022-11-15T05:53:12;1.92;;;1.40;;
73670;SDS011;61968;48.178;11.566;2022-11-15T05:55:41;2.47;;;1.27;;
73670;SDS011;61968;48.178;11.566;2022-11-15T05:58:07;2.83;;;2.10;;
73670;SDS011;61968;48.178;11.566;2022-11-15T06:03:02;2.53;;;1.58;;
73670;SDS011;61968;48.178;11.566;2022-11-15T06:05:28;5.18;;;1.63;;
73670;SDS011;61968;48.178;11.566;2022-11-15T06:07:56;4.07;;;1.70;;
73670;SDS011;61968;48.178;11.566;2022-11-15T06:10:23;1.58;;;1.30;;
73670;SDS011;61968;48.178;11.566;2022-11-15T06:12:55;1.50;;;1.40;;
73670;SDS011;61968;48.178;11.566;2022-11-15T06:15:22;1.65;;;1.35;;
73670;SDS011;61968;48.178;11.566;2022-11-15T06:20:17;1.55;;;1.17;;
73670;SDS011;61968;48.178;11.566;2022-11-15T06:22:44;3.80;;;1.50;;
73670;SDS011;61968;48.178;11.566;2022-11-15T06:25:10;2.35;;;1.55;;
73670;SDS011;61968;48.178;11.566;2022-11-15T06:27:37;5.65;;;1.58;;
73670;SDS011;61968;48.178;11.566;2022-11-15T06:30:03;1.35;;;1.25;;
73670;SDS011;61968;48.178;11.566;2022-11-15T06:32:31;1.65;;;1.55;;
73670;SDS011;61968;48.178;11.566;2022-11-15T06:37:25;3.17;;;1.35;;
73670;SDS011;61968;48.178;11.566;2022-11-15T06:39:51;5.32;;;1.70;;
73670;SDS011;61968;48.178;11.566;2022-11-15T06:44:44;6.28;;;3.05;;
73670;SDS011;61968;48.178;11.566;2022-11-15T06:47:11;7.90;;;2.80;;
73670;SDS011;61968;48.178;11.566;2022-11-15T06:52:04;11.00;;;4.93;;
73670;SDS011;61968;48.178;11.566;2022-11-15T06:54:32;8.48;;;4.13;;
73670;SDS011;61968;48.178;11.566;2022-11-15T06:57:00;3.50;;;2.40;;
73670;SDS011;61968;48.178;11.566;2022-11-15T07:01:52;3.92;;;1.83;;
73670;SDS011;61968;48.178;11.566;2022-11-15T07:06:46;1.45;;;1.30;;
73670;SDS011;61968;48.178;11.566;2022-11-15T07:09:13;6.75;;;1.98;;
73670;SDS011;61968;48.178;11.566;2022-11-15T07:11:41;2.38;;;1.25;;
73670;SDS011;61968;48.178;11.566;2022-11-15T07:14:07;2.60;;;1.60;;
73670;SDS011;61968;48.178;11.566;2022-11-15T07:16:35;2.78;;;1.30;;
73670;SDS011;61968;48.178;11.566;2022-11-15T07:19:02;2.28;;;1.52;;
73670;SDS011;61968;48.178;11.566;2022-11-15T07:21:29;2.35;;;1.50;;
73670;SDS011;61968;48.178;11.566;2022-11-15T07:26:22;3.78;;;1.80;;
73670;SDS011;61968;48.178;11.566;2022-11-15T07:31:16;2.30;;;1.13;;
73670;SDS011;61968;48.178;11.566;2022-11-15T07:33:42;2.92;;;1.42;;
73670;SDS011;61968;48.178;11.566;2022-11-15T07:36:09;1.70;;;1.50;;
73670;SDS011;61968;48.178;11.566;2022-11-15T07:41:03;2.65;;;1.73;;
73670;SDS011;61968;48.178;11.566;2022-11-15T07:43:31;8.73;;;1.88;;
73670;SDS011;61968;48.178;11.566;2022-11-15T07:46:03;5.07;;;1.92;;
73670;SDS011;61968;48.178;11.566;2022-11-15T07:48:32;4.47;;;1.88;;
73670;SDS011;61968;48.178;11.566;2022-11-15T07:53:25;4.50;;;2.00;;
73670;SDS011;61968;48.178;11.566;2022-11-15T07:55:51;5.38;;;2.50;;
73670;SDS011;61968;48.178;11.566;2022-11-15T07:58:18;5.57;;;3.35;;
73670;SDS011;61968;48.178;11.566;2022-11-15T08:00:45;6.35;;;2.85;;
73670;SDS011;61968;48.178;11.566;2022-11-15T08:05:40;5.30;;;2.40;;
73670;SDS011;61968;48.178;11.566;2022-11-15T08:08:08;4.03;;;1.20;;
73670;SDS011;61968;48.178;11.566;2022-11-15T08:10:36;3.50;;;2.28;;
73670;SDS011;61968;48.178;11.566;2022-11-15T08:13:04;5.90;;;2.65;;
73670;SDS011;61968;48.178;11.566;2022-11-15T08:15:32;2.67;;;2.03;;
73670;SDS011;61968;48.178;11.566;2022-11-15T08:18:01;4.30;;;1.90;;
73670;SDS011;61968;48.178;11.566;2022-11-15T08:20:31;5.40;;;1.77;;
73670;SDS011;61968;48.178;11.566;2022-11-15T08:22:59;4.68;;;2.17;;
73670;SDS011;61968;48.178;11.566;2022-11-15T08:25:27;4.32;;;1.63;;
73670;SDS011;61968;48.178;11.566;2022-11-15T08:27:56;1.55;;;1.45;;
73670;SDS011;61968;48.178;11.566;2022-11-15T08:30:24;4.10;;;2.05;;
73670;SDS011;61968;48.178;11.566;2022-11-15T08:32:52;2.85;;;2.03;;
73670;SDS011;61968;48.178;11.566;2022-11-15T08:35:19;4.65;;;2.85;;
73670;SDS011;61968;48.178;11.566;2022-11-15T08:37:48;6.38;;;2.38;;
73670;SDS011;61968;48.178;11.566;2022-11-15T08:40:15;3.08;;;2.28;;
73670;SDS011;61968;48.178;11.566;2022-11-15T08:42:42;5.13;;;3.35;;
73670;SDS011;61968;48.178;11.566;2022-11-15T08:45:12;4.45;;;2.22;;
73670;SDS011;61968;48.178;11.566;2022-11-15T08:47:39;5.93;;;2.25;;
73670;SDS011;61968;48.178;11.566;2022-11-15T08:50:06;4.18;;;2.33;;
73670;SDS011;61968;48.178;11.566;2022-11-15T08:52:33;6.28;;;3.60;;
73670;SDS011;61968;48.178;11.566;2022-11-15T08:57:28;5.68;;;3.45;;
73670;SDS011;61968;48.178;11.566;2022-11-15T08:59:55;9.38;;;4.80;;
73670;SDS011;61968;48.178;11.566;2022-11-15T09:02:22;16.23;;;7.53;;
73670;SDS011;61968;48.178;11.566;2022-11-15T09:04:49;15.15;;;7.13;;
73670;SDS011;61968;48.178;11.566;2022-11-15T09:07:15;6.28;;;4.13;;
73670;SDS011;61968;48.178;11.566;2022-11-15T09:12:10;3.05;;;1.85;;
73670;SDS011;61968;48.178;11.566;2022-11-15T09:14:36;2.67;;;1.67;;
73670;SDS011;61968;48.178;11.566;2022-11-15T09:19:29;7.38;;;3.47;;
73670;SDS011;61968;48.178;11.566;2022-11-15T09:21:56;11.05;;;4.55;;
73670;SDS011;61968;48.178;11.566;2022-11-15T09:26:49;9.80;;;6.03;;
73670;SDS011;61968;48.178;11.566;2022-11-15T09:29:18;10.05;;;5.22;;
73670;SDS011;61968;48.178;11.566;2022-11-15T09:31:45;3.10;;;2.60;;
73670;SDS011;61968;48.178;11.566;2022-11-15T09:34:11;3.30;;;2.15;;
73670;SDS011;61968;48.178;11.566;2022-11-15T09:36:38;5.05;;;1.50;;
73670;SDS011;61968;48.178;11.566;2022-11-15T09:41:40;5.22;;;1.98;;
73670;SDS011;61968;48.178;11.566;2022-11-15T09:44:29;3.15;;;1.80;;
73670;SDS011;61968;48.178;11.566;2022-11-15T09:47:17;1.80;;;1.70;;
73670;SDS011;61968;48.178;11.566;2022-11-15T09:49:58;2.47;;;1.85;;
73670;SDS011;61968;48.178;11.566;2022-11-15T09:52:27;1.65;;;1.55;;
73670;SDS011;61968;48.178;11.566;2022-11-15T09:54:54;3.15;;;1.65;;
73670;SDS011;61968;48.178;11.566;2022-11-15T09:57:21;2.10;;;1.80;;
73670;SDS011;61968;48.178;11.566;2022-11-15T10:00:08;2.40;;;1.80;;
73670;SDS011;61968;48.178;11.566;2022-11-15T10:02:43;3.35;;;1.58;;
73670;SDS011;61968;48.178;11.566;2022-11-15T10:05:22;3.28;;;1.60;;
73670;SDS011;61968;48.178;11.566;2022-11-15T10:07:52;4.55;;;1.92;;
73670;SDS011;61968;48.178;11.566;2022-11-15T10:10:27;3.17;;;1.90;;
73670;SDS011;61968;48.178;11.566;2022-11-15T10:15:26;2.47;;;1.80;;
73670;SDS011;61968;48.178;11.566;2022-11-15T10:18:00;3.13;;;1.73;;
73670;SDS011;61968;48.178;11.566;2022-11-15T10:20:34;3.28;;;1.60;;
73670;SDS011;61968;48.178;11.566;2022-11-15T10:23:11;2.70;;;1.70;;
73670;SDS011;61968;48.178;11.566;2022-11-15T10:25:40;2.60;;;1.67;;
73670;SDS011;61968;48.178;11.566;2022-11-15T10:28:09;3.47;;;1.70;;
73670;SDS011;61968;48.178;11.566;2022-11-15T10:30:42;1.63;;;1.50;;
73670;SDS011;61968;48.178;11.566;2022-11-15T10:33:12;1.88;;;1.42;;
73670;SDS011;61968;48.178;11.566;2022-11-15T10:35:44;1.50;;;1.40;;
73670;SDS011;61968;48.178;11.566;2022-11-15T10:38:11;6.47;;;3.45;;
73670;SDS011;61968;48.178;11.566;2022-11-15T10:40:38;4.97;;;2.75;;
73670;SDS011;61968;48.178;11.566;2022-11-15T10:43:12;5.00;;;1.88;;
73670;SDS011;61968;48.178;11.566;2022-11-15T10:45:43;2.15;;;1.40;;
73670;SDS011;61968;48.178;11.566;2022-11-15T10:48:23;2.05;;;1.75;;
73670;SDS011;61968;48.178;11.566;2022-11-15T10:50:51;1.67;;;1.42;;
73670;SDS011;61968;48.178;11.566;2022-11-15T10:53:27;3.08;;;1.58;;
73670;SDS011;61968;48.178;11.566;2022-11-15T10:55:58;1.23;;;1.13;;
73670;SDS011;61968;48.178;11.566;2022-11-15T10:58:35;1.48;;;1.10;;
73670;SDS011;61968;48.178;11.566;2022-11-15T11:01:13;1.67;;;1.17;;
73670;SDS011;61968;48.178;11.566;2022-11-15T11:03:42;2.63;;;1.35;;
73670;SDS011;61968;48.178;11.566;2022-11-15T11:06:11;3.50;;;1.33;;
73670;SDS011;61968;48.178;11.566;2022-11-15T11:08:38;2.28;;;1.80;;
73670;SDS011;61968;48.178;11.566;2022-11-15T11:11:06;2.10;;;1.30;;
73670;SDS011;61968;48.178;11.566;2022-11-15T11:13:34;3.83;;;2.00;;
73670;SDS011;61968;48.178;11.566;2022-11-15T11:19:10;1.23;;;1.13;;
73670;SDS011;61968;48.178;11.566;2022-11-15T11:21:46;2.55;;;1.80;;
73670;SDS011;61968;48.178;11.566;2022-11-15T11:24:19;2.83;;;1.52;;
73670;SDS011;61968;48.178;11.566;2022-11-15T11:26:56;3.15;;;1.30;;
73670;SDS011;61968;48.178;11.566;2022-11-15T11:29:36;1.08;;;0.98;;
73670;SDS011;61968;48.178;11.566;2022-11-15T11:32:19;1.42;;;1.13;;
73670;SDS011;61968;48.178;11.566;2022-11-15T11:34:58;1.25;;;1.15;;
73670;SDS011;61968;48.178;11.566;2022-11-15T11:37:36;1.95;;;1.15;;
73670;SDS011;61968;48.178;11.566;2022-11-15T11:40:16;1.65;;;1.15;;
73670;SDS011;61968;48.178;11.566;2022-11-15T11:42:56;2.03;;;1.42;;
73670;SDS011;61968;48.178;11.566;2022-11-15T11:45:34;2.67;;;1.20;;
73670;SDS011;61968;48.178;11.566;2022-11-15T11:48:20;0.90;;;0.90;;
73670;SDS011;61968;48.178;11.566;2022-11-15T11:50:52;2.00;;;1.17;;
73670;SDS011;61968;48.178;11.566;2022-11-15T11:53:24;2.88;;;1.63;;
73670;SDS011;61968;48.178;11.566;2022-11-15T11:55:59;4.63;;;3.35;;
73670;SDS011;61968;48.178;11.566;2022-11-15T11:58:33;2.33;;;1.20;;
73670;SDS011;61968;48.178;11.566;2022-11-15T12:01:04;1.27;;;1.08;;
73670;SDS011;61968;48.178;11.566;2022-11-15T12:03:39;1.83;;;1.33;;
73670;SDS011;61968;48.178;11.566;2022-11-15T12:06:20;3.42;;;2.58;;
73670;SDS011;61968;48.178;11.566;2022-11-15T12:08:50;10.60;;;5.28;;
73670;SDS011;61968;48.178;11.566;2022-11-15T12:11:20;1.70;;;1.25;;
73670;SDS011;61968;48.178;11.566;2022-11-15T12:13:56;2.80;;;1.98;;
73670;SDS011;61968;48.178;11.566;2022-11-15T12:16:27;3.60;;;1.58;;
73670;SDS011;61968;48.178;11.566;2022-11-15T12:18:58;1.60;;;1.10;;
73670;SDS011;61968;48.178;11.566;2022-11-15T12:21:28;2.60;;;1.48;;
73670;SDS011;61968;48.178;11.566;2022-11-15T12:24:04;2.25;;;1.48;;
73670;SDS011;61968;48.178;11.566;2022-11-15T12:26:35;0.82;;;0.82;;
73670;SDS011;61968;48.178;11.566;2022-11-15T12:29:09;1.55;;;1.23;;
73670;SDS011;61968;48.178;11.566;2022-11-15T12:31:40;1.55;;;1.17;;
73670;SDS011;61968;48.178;11.566;2022-11-15T12:34:16;1.23;;;1.00;;
73670;SDS011;61968;48.178;11.566;2022-11-15T12:37:01;1.98;;;1.20;;
73670;SDS011;61968;48.178;11.566;2022-11-15T12:40:05;1.25;;;1.15;;
73670;SDS011;61968;48.178;11.566;2022-11-15T12:42:56;0.90;;;0.90;;
73670;SDS011;61968;48.178;11.566;2022-11-15T12:45:26;1.30;;;1.20;;
73670;SDS011;61968;48.178;11.566;2022-11-15T12:47:55;1.23;;;1.13;;
73670;SDS011;61968;48.178;11.566;2022-11-15T12:50:55;1.23;;;1.13;;
73670;SDS011;61968;48.178;11.566;2022-11-15T12:53:27;1.80;;;1.23;;
73670;SDS011;61968;48.178;11.566;2022-11-15T12:58:50;2.55;;;1.70;;
73670;SDS011;61968;48.178;11.566;2022-11-15T13:04:23;3.30;;;1.60;;
73670;SDS011;61968;48.178;11.566;2022-11-15T13:06:53;3.42;;;1.60;;
73670;SDS011;61968;48.178;11.566;2022-11-15T13:15:31;2.08;;;1.50;;
73670;SDS011;61968;48.178;11.566;2022-11-15T13:18:27;5.53;;;1.90;;
73670;SDS011;61968;48.178;11.566;2022-11-15T13:20:59;2.33;;;1.90;;
73670;SDS011;61968;48.178;11.566;2022-11-15T13:23:52;1.75;;;1.20;;
73670;SDS011;61968;48.178;11.566;2022-11-15T13:26:21;2.75;;;1.55;;
73670;SDS011;61968;48.178;11.566;2022-11-15T13:28:49;1.92;;;1.63;;
73670;SDS011;61968;48.178;11.566;2022-11-15T13:31:24;2.33;;;1.73;;
73670;SDS011;61968;48.178;11.566;2022-11-15T13:33:53;1.92;;;1.45;;
73670;SDS011;61968;48.178;11.566;2022-11-15T13:36:23;5.63;;;1.73;;
73670;SDS011;61968;48.178;11.566;2022-11-15T13:38:58;1.92;;;1.58;;
73670;SDS011;61968;48.178;11.566;2022-11-15T13:41:27;3.78;;;1.58;;
73670;SDS011;61968;48.178;11.566;2022-11-15T13:43:55;2.72;;;1.95;;
73670;SDS011;61968;48.178;11.566;2022-11-15T13:46:23;1.50;;;1.40;;
73670;SDS011;61968;48.178;11.566;2022-11-15T13:48:51;2.33;;;1.95;;
73670;SDS011;61968;48.178;11.566;2022-11-15T13:51:23;1.65;;;1.55;;
73670;SDS011;61968;48.178;11.566;2022-11-15T13:53:55;2.33;;;1.70;;
73670;SDS011;61968;48.178;11.566;2022-11-15T13:56:25;4.75;;;1.52;;
73670;SDS011;61968;48.178;11.566;2022-11-15T13:58:54;2.53;;;1.58;;
73670;SDS011;61968;48.178;11.566;2022-11-15T14:01:20;1.42;;;1.33;;
73670;SDS011;61968;48.178;11.566;2022-11-15T14:03:54;2.40;;;1.55;;
73670;SDS011;61968;48.178;11.566;2022-11-15T14:06:23;2.63;;;1.88;;
73670;SDS011;61968;48.178;11.566;2022-11-15T14:09:14;2.97;;;1.98;;
73670;SDS011;61968;48.178;11.566;2022-11-15T14:11:54;4.22;;;1.73;;
73670;SDS011;61968;48.178;11.566;2022-11-15T14:14:22;1.80;;;1.70;;
73670;SDS011;61968;48.178;11.566;2022-11-15T14:16:50;3.22;;;2.08;;
73670;SDS011;61968;48.178;11.566;2022-11-15T14:19:35;2.67;;;2.47;;
73670;SDS011;61968;48.178;11.566;2022-11-15T14:25:07;3.22;;;2.28;;
73670;SDS011;61968;48.178;11.566;2022-11-15T14:27:41;3.67;;;2.10;;
73670;SDS011;61968;48.178;11.566;2022-11-15T14:30:12;5.15;;;2.90;;
73670;SDS011;61968;48.178;11.566;2022-11-15T14:32:44;3.95;;;2.60;;
73670;SDS011;61968;48.178;11.566;2022-11-15T14:37:42;5.93;;;2.63;;
73670;SDS011;61968;48.178;11.566;2022-11-15T14:40:13;3.15;;;2.17;;
73670;SDS011;61968;48.178;11.566;2022-11-15T14:42:40;4.03;;;2.17;;
73670;SDS011;61968;48.178;11.566;2022-11-15T14:45:09;3.33;;;2.63;;
73670;SDS011;61968;48.178;11.566;2022-11-15T14:47:39;4.30;;;2.60;;
73670;SDS011;61968;48.178;11.566;2022-11-15T14:50:06;3.05;;;2.40;;
73670;SDS011;61968;48.178;11.566;2022-11-15T14:52:36;7.30;;;3.25;;
73670;SDS011;61968;48.178;11.566;2022-11-15T14:55:10;3.13;;;2.83;;
73670;SDS011;61968;48.178;11.566;2022-11-15T14:57:42;3.83;;;2.97;;
73670;SDS011;61968;48.178;11.566;2022-11-15T15:00:09;4.18;;;2.72;;
73670;SDS011;61968;48.178;11.566;2022-11-15T15:02:36;6.60;;;3.30;;
73670;SDS011;61968;48.178;11.566;2022-11-15T15:05:08;7.28;;;4.05;;
73670;SDS011;61968;48.178;11.566;2022-11-15T15:07:40;4.38;;;3.97;;
73670;SDS011;61968;48.178;11.566;2022-11-15T15:10:06;7.65;;;4.32;;
73670;SDS011;61968;48.178;11.566;2022-11-15T15:12:35;9.25;;;4.60;;
73670;SDS011;61968;48.178;11.566;2022-11-15T15:15:01;7.03;;;5.30;;
73670;SDS011;61968;48.178;11.566;2022-11-15T15:17:28;10.90;;;5.07;;
73670;SDS011;61968;48.178;11.566;2022-11-15T15:19:55;10.10;;;6.25;;
73670;SDS011;61968;48.178;11.566;2022-11-15T15:22:21;4.88;;;4.05;;
73670;SDS011;61968;48.178;11.566;2022-11-15T15:24:56;7.00;;;4.82;;
73670;SDS011;61968;48.178;11.566;2022-11-15T15:27:23;8.07;;;5.05;;
73670;SDS011;61968;48.178;11.566;2022-11-15T15:29:50;7.95;;;5.10;;
73670;SDS011;61968;48.178;11.566;2022-11-15T15:32:17;8.35;;;5.28;;
73670;SDS011;61968;48.178;11.566;2022-11-15T15:34:44;6.75;;;4.93;;
73670;SDS011;61968;48.178;11.566;2022-11-15T15:37:21;8.40;;;4.85;;
73670;SDS011;61968;48.178;11.566;2022-11-15T15:39:49;8.73;;;5.22;;
73670;SDS011;61968;48.178;11.566;2022-11-15T15:42:17;9.20;;;5.88;;
73670;SDS011;61968;48.178;11.566;2022-11-15T15:44:44;8.07;;;4.80;;
73670;SDS011;61968;48.178;11.566;2022-11-15T15:47:12;6.85;;;4.50;;
73670;SDS011;61968;48.178;11.566;2022-11-15T15:49:41;5.97;;;4.35;;
73670;SDS011;61968;48.178;11.566;2022-11-15T15:52:07;7.68;;;4.20;;
73670;SDS011;61968;48.178;11.566;2022-11-15T15:54:34;8.02;;;4.45;;
73670;SDS011;61968;48.178;11.566;2022-11-15T15:57:00;10.85;;;5.95;;
73670;SDS011;61968;48.178;11.566;2022-11-15T15:59:27;6.97;;;4.40;;
73670;SDS011;61968;48.178;11.566;2022-11-15T16:01:54;8.10;;;5.45;;
73670;SDS011;61968;48.178;11.566;2022-11-15T16:04:24;12.85;;;5.18;;
73670;SDS011;61968;48.178;11.566;2022-11-15T16:06:51;11.07;;;5.05;;
73670;SDS011;61968;48.178;11.566;2022-11-15T16:09:20;7.47;;;5.13;;
73670;SDS011;61968;48.178;11.566;2022-11-15T16:12:07;8.00;;;4.30;;
73670;SDS011;61968;48.178;11.566;2022-11-15T16:14:34;6.80;;;4.53;;
73670;SDS011;61968;48.178;11.566;2022-11-15T16:17:00;7.25;;;4.38;;
73670;SDS011;61968;48.178;11.566;2022-11-15T16:19:28;8.77;;;4.78;;
73670;SDS011;61968;48.178;11.566;2022-11-15T16:21:55;6.00;;;4.00;;
73670;SDS011;61968;48.178;11.566;2022-11-15T16:24:21;10.98;;;4.85;;
73670;SDS011;61968;48.178;11.566;2022-11-15T16:26:48;7.50;;;5.22;;
73670;SDS011;61968;48.178;11.566;2022-11-15T16:29:17;7.20;;;4.68;;
73670;SDS011;61968;48.178;11.566;2022-11-15T16:31:43;8.40;;;3.92;;
73670;SDS011;61968;48.178;11.566;2022-11-15T16:34:10;8.65;;;5.22;;
73670;SDS011;61968;48.178;11.566;2022-11-15T16:36:38;12.73;;;6.55;;
73670;SDS011;61968;48.178;11.566;2022-11-15T16:39:05;10.60;;;5.15;;
73670;SDS011;61968;48.178;11.566;2022-11-15T16:41:31;9.68;;;4.97;;
73670;SDS011;61968;48.178;11.566;2022-11-15T16:43:58;6.45;;;4.53;;
73670;SDS011;61968;48.178;11.566;2022-11-15T16:46:25;8.55;;;4.60;;
73670;SDS011;61968;48.178;11.566;2022-11-15T16:48:53;8.82;;;4.60;;
73670;SDS011;61968;48.178;11.566;2022-11-15T16:51:20;7.63;;;5.22;;
73670;SDS011;61968;48.178;11.566;2022-11-15T16:53:48;7.47;;;4.00;;
73670;SDS011;61968;48.178;11.566;2022-11-15T16:56:17;6.47;;;4.00;;
73670;SDS011;61968;48.178;11.566;2022-11-15T16:58:48;11.82;;;5.00;;
73670;SDS011;61968;48.178;11.566;2022-11-15T17:01:19;9.50;;;5.63;;
73670;SDS011;61968;48.178;11.566;2022-11-15T17:03:48;10.55;;;4.57;;